Latest Weather Observations for Moorabbin Airport

IDV60801

Issued at 1:35 pm EST Friday 22 August 2014 (issued every 30 minutes, with the page automatically refreshed every 10 minutes)

About weather observations | Map of weather stations | Latest weather observations for VIC | Other Formats
Station Details ID: 086077 Name: MOORABBIN AIRPORT Lat: -37.98 Lon: 145.10 Height: 12.1 m
Data from the previous 72 hours. | See also: Recent months at Moorabbin Airport
Date/Time
EST
Temp
°C
App
Temp
°C
Dew
Point
Rel
Hum
%
Delta-T
°C
Wind Press
QNH
hPa
Press
MSL
hPa
Rain
since 9 am
mm
Dir
 
Spd
km/h
Gust
km/h
Spd
kts
Gust
kts
22/01:30pm 18.3 15.6 7.4 49 5.5 NNW 11 22 6 12 1028.6 1028.7 0.0
22/01:00pm 18.7 15.5 5.2 41 6.5 NW 11 15 6 8 1029.0 1029.1 0.0
22/12:30pm 18.1 14.8 6.6 47 5.7 N 13 20 7 11 1029.4 1029.5 0.0
22/12:00pm 17.8 14.7 7.2 50 5.3 N 13 22 7 12 1030.0 1030.0 0.0
22/11:30am 17.5 14.3 6.7 49 5.4 N 13 20 7 11 1030.5 1030.5 0.0
22/11:00am 17.3 14.9 6.8 50 5.2 N 9 15 5 8 1030.8 1030.8 0.0
22/10:30am 17.0 14.3 7.4 53 4.8 NNE 11 15 6 8 1030.9 1030.9 0.0
22/10:00am 15.6 15.3 8.8 64 3.4 CALM 0 7 0 4 1031.0 1031.0 0.0
22/09:30am 14.0 13.8 9.2 73 2.4 CALM 0 0 0 0 1031.2 1031.2 0.0
22/09:00am 12.2 12.1 9.6 84 1.3 CALM 0 0 0 0 1031.3 1031.3 0.0
22/08:30am 10.4 9.4 10.2 99 0.1 NE 6 7 3 4 1031.3 1031.3 0.0
22/08:00am 7.4 6.8 7.3 99 0.0 CALM 0 0 0 0 1031.1 1031.1 0.0
22/07:30am 5.2 4.1 5.1 99 0.0 CALM 0 0 0 0 1030.9 1030.9 0.0
22/07:00am 3.8 2.4 3.7 99 0.0 CALM 0 0 0 0 1030.5 1030.5 0.0
22/06:33am 3.1 1.6 3.0 99 0.0 CALM 0 0 0 0 1030.4 1030.4 0.0
22/06:30am 3.2 1.7 3.1 99 0.0 CALM 0 4 0 2 1030.4 1030.4 0.0
22/06:14am 4.3 3.0 4.2 99 0.0 CALM 0 4 0 2 1030.3 1030.3 0.0
22/06:00am 4.0 1.9 3.9 99 0.0 NNE 4 6 2 3 1030.2 1030.2 0.0
22/05:30am 4.0 2.7 3.9 99 0.0 CALM 0 0 0 0 1030.1 1030.1 0.0
22/05:00am 3.9 2.5 3.8 99 0.0 CALM 0 0 0 0 1029.7 1029.8 0.0
22/04:58am 3.8 2.4 3.7 99 0.0 CALM 0 0 0 0 1029.7 1029.8 0.0
22/04:42am 4.0 2.7 3.9 99 0.0 CALM 0 0 0 0 1029.6 1029.7 0.0
22/04:31am 4.0 2.7 3.9 99 0.0 CALM 0 0 0 0 1029.5 1029.6 0.0
22/04:30am 3.9 2.5 3.8 99 0.0 CALM 0 0 0 0 1029.5 1029.6 0.0
22/04:05am 4.3 3.0 4.2 99 0.0 CALM 0 0 0 0 1029.3 1029.4 0.0
22/04:00am 4.2 2.9 4.1 99 0.0 CALM 0 0 0 0 1029.3 1029.4 0.0
22/03:32am 4.4 2.8 4.3 99 0.0 N 2 6 1 3 1029.4 1029.5 0.0
22/03:30am 4.4 2.8 4.3 99 0.0 N 2 6 1 3 1029.4 1029.5 0.0
22/03:05am 4.9 3.7 4.8 99 0.0 CALM 0 0 0 0 1029.3 1029.4 0.0
22/03:00am 5.2 4.1 5.1 99 0.0 CALM 0 0 0 0 1029.3 1029.4 0.0
22/02:30am 5.2 4.1 4.9 98 0.1 CALM 0 0 0 0 1029.5 1029.6 0.0
22/02:20am 5.3 4.2 5.2 99 0.0 CALM 0 0 0 0 1029.5 1029.6 0.0
22/02:09am 5.2 4.1 4.9 98 0.1 CALM 0 0 0 0 1029.5 1029.6 0.0
22/02:00am 4.9 3.7 4.6 98 0.1 CALM 0 0 0 0 1029.5 1029.6 0.0
22/01:30am 6.0 5.0 5.7 98 0.1 CALM 0 0 0 0 1029.6 1029.7 0.0
22/01:08am 6.3 5.0 6.0 98 0.1 E 2 6 1 3 1029.6 1029.7 0.0
22/01:00am 6.3 4.6 6.0 98 0.1 E 4 6 2 3 1029.5 1029.6 0.0
22/12:42am 6.7 4.7 6.3 97 0.2 E 6 7 3 4 1029.5 1029.6 0.0
22/12:30am 6.6 4.6 6.2 97 0.2 ESE 6 7 3 4 1029.5 1029.6 0.0
22/12:00am 6.7 4.5 6.1 96 0.3 SE 7 9 4 5 1029.5 1029.6 0.0
 
Date/Time
EST
Temp
°C
App
Temp
°C
Dew
Point
Rel
Hum
%
Delta-T
°C
Wind Press
QNH
hPa
Press
MSL
hPa
Rain
since 9 am
mm
Dir
 
Spd
km/h
Gust
km/h
Spd
kts
Gust
kts
21/11:36pm 7.4 6.7 6.8 96 0.3 CALM 0 0 0 0 1029.5 1029.6 0.0
21/11:30pm 7.3 6.5 6.7 96 0.3 CALM 0 0 0 0 1029.5 1029.6 0.0
21/11:17pm 6.3 5.3 5.4 94 0.4 CALM 0 0 0 0 1029.5 1029.6 0.0
21/11:00pm 7.4 6.6 6.7 95 0.3 CALM 0 0 0 0 1029.5 1029.6 0.0
21/10:43pm 7.7 7.0 6.8 94 0.4 CALM 0 0 0 0 1029.4 1029.5 0.0
21/10:30pm 7.9 7.2 6.8 93 0.5 CALM 0 0 0 0 1029.4 1029.5 0.0
21/10:25pm 8.0 7.3 6.9 93 0.5 CALM 0 0 0 0 1029.4 1029.5 0.0
21/10:00pm 8.6 7.2 7.2 91 0.7 E 4 6 2 3 1029.5 1029.6 0.0
21/09:30pm 8.7 6.3 6.8 88 0.9 SE 9 9 5 5 1029.4 1029.5 0.0
21/09:00pm 9.2 6.8 7.2 87 0.9 ESE 9 11 5 6 1029.2 1029.3 0.0
21/08:30pm 10.5 8.9 8.1 85 1.2 ESE 6 7 3 4 1028.9 1029.0 0.0
21/08:00pm 11.1 9.3 8.1 82 1.5 SE 7 9 4 5 1028.8 1028.9 0.0
21/07:30pm 12.2 10.2 8.5 78 1.8 E 9 11 5 6 1028.5 1028.6 0.0
21/07:00pm 13.2 10.5 8.9 75 2.1 E 13 17 7 9 1028.2 1028.3 0.0
21/06:30pm 14.5 13.0 9.1 70 2.8 ENE 7 11 4 6 1028.0 1028.1 0.0
21/06:00pm 14.7 12.0 8.9 68 2.9 E 13 15 7 8 1027.7 1027.8 0.0
21/05:30pm 15.5 13.7 7.8 60 3.8 NNE 7 11 4 6 1027.4 1027.5 0.0
21/05:00pm 15.7 13.5 8.0 60 3.8 NNE 9 15 5 8 1027.1 1027.2 0.0
21/04:30pm 14.7 13.4 9.9 73 2.5 SSW 7 13 4 7 1027.0 1027.1 0.0
21/04:00pm 14.3 12.6 9.9 75 2.3 SSW 9 13 5 7 1027.0 1027.1 0.0
21/03:30pm 14.0 11.7 9.0 72 2.5 WSW 11 17 6 9 1027.0 1027.1 0.0
21/03:00pm 14.6 12.4 9.2 70 2.7 SSW 11 15 6 8 1026.9 1027.0 0.0
21/02:30pm 14.9 12.6 9.1 68 3.0 S 11 15 6 8 1026.8 1026.9 0.0
21/02:00pm 14.3 11.9 8.7 69 2.8 SW 11 15 6 8 1027.0 1027.1 0.0
21/01:30pm 14.0 11.6 8.6 70 2.7 SSW 11 19 6 10 1027.2 1027.3 0.0
21/01:00pm 15.8 12.8 7.8 59 4.0 NE 13 22 7 12 1027.6 1027.7 0.0
21/12:30pm 15.5 12.5 7.8 60 3.8 NE 13 20 7 11 1028.0 1028.1 0.0
21/12:00pm 14.0 11.7 7.3 64 3.3 ESE 9 15 5 8 1028.6 1028.7 0.0
21/11:30am 13.6 12.6 7.4 66 3.0 ENE 2 9 1 5 1029.1 1029.2 0.0
21/11:00am 12.6 10.6 6.9 68 2.7 ENE 7 11 4 6 1029.3 1029.4 0.0
21/10:30am 12.3 10.1 8.0 75 2.1 N 9 13 5 7 1029.5 1029.6 0.0
21/10:00am 11.1 8.4 7.4 78 1.8 N 11 15 6 8 1029.6 1029.7 0.0
21/09:30am 10.1 7.7 7.0 81 1.5 N 9 13 5 7 1029.6 1029.7 0.0
21/09:00am 9.4 7.0 7.2 86 1.0 N 9 13 5 7 1029.5 1029.6 0.0
21/08:30am 8.2 5.9 7.3 94 0.4 NE 9 13 5 7 1029.3 1029.4 0.0
21/08:00am 6.9 4.8 6.6 98 0.1 NE 7 9 4 5 1029.0 1029.1 0.0
21/07:30am 6.5 4.3 6.4 99 0.0 ESE 7 9 4 5 1028.6 1028.7 0.0
21/07:00am 5.2 4.1 4.9 98 0.1 CALM 0 0 0 0 1028.5 1028.6 0.0
21/06:30am 5.4 4.3 5.1 98 0.1 CALM 0 0 0 0 1028.3 1028.4 0.0
21/06:00am 4.9 2.5 4.5 97 0.2 NNE 6 7 3 4 1028.1 1028.2 0.0
21/05:30am 3.9 2.1 3.3 96 0.2 S 2 6 1 3 1027.8 1027.9 0.0
21/05:00am 4.2 2.8 3.5 95 0.3 CALM 0 0 0 0 1028.0 1028.1 0.0
21/04:30am 4.7 3.4 4.0 95 0.3 CALM 0 0 0 0 1027.9 1028.0 0.0
21/04:00am 5.2 3.9 4.3 94 0.4 CALM 0 0 0 0 1027.6 1027.7 0.0
21/03:30am 6.0 4.9 5.0 93 0.4 CALM 0 0 0 0 1027.5 1027.6 0.0
21/03:00am 6.2 5.1 5.0 92 0.5 CALM 0 0 0 0 1027.5 1027.6 0.0
21/02:30am 6.3 3.9 4.5 88 0.8 ESE 6 7 3 4 1027.7 1027.8 0.0
21/02:00am 7.1 4.2 4.8 85 1.0 SE 9 13 5 7 1027.7 1027.8 0.0
21/01:30am 8.5 5.9 6.0 84 1.1 SE 9 13 5 7 1027.7 1027.8 0.0
21/01:00am 8.4 5.8 6.0 85 1.1 SE 9 11 5 6 1027.8 1027.9 0.0
21/12:30am 8.5 5.8 5.8 83 1.2 SE 9 13 5 7 1027.8 1027.9 0.0
21/12:00am 8.9 6.3 6.2 83 1.2 SE 9 13 5 7 1027.9 1028.0 0.0
 
Date/Time
EST
Temp
°C
App
Temp
°C
Dew
Point
Rel
Hum
%
Delta-T
°C
Wind Press
QNH
hPa
Press
MSL
hPa
Rain
since 9 am
mm
Dir
 
Spd
km/h
Gust
km/h
Spd
kts
Gust
kts
20/11:30pm 9.4 6.5 6.5 82 1.3 SSE 11 13 6 7 1028.0 1028.1 0.0
20/11:00pm 9.3 7.1 6.0 80 1.5 SE 7 9 4 5 1028.1 1028.2 0.0
20/10:30pm 9.5 6.5 6.2 80 1.5 SE 11 13 6 7 1028.2 1028.3 0.0
20/10:00pm 9.5 7.4 6.0 79 1.6 SE 6 7 3 4 1028.5 1028.6 0.0
20/09:30pm 9.4 6.7 5.8 78 1.6 ESE 9 9 5 5 1028.5 1028.6 0.0
20/09:00pm 9.9 7.6 5.5 74 2.0 SSE 7 11 4 6 1028.3 1028.4 0.0
20/08:30pm 9.8 7.1 5.6 75 1.9 S 9 13 5 7 1028.2 1028.3 0.0
20/08:00pm 10.1 7.0 5.7 74 2.0 SSE 11 15 6 8 1028.2 1028.3 0.0
20/07:30pm 10.3 7.3 6.1 75 1.9 SSE 11 13 6 7 1028.1 1028.2 0.0
20/07:00pm 10.9 7.6 6.5 74 2.1 S 13 15 7 8 1028.0 1028.1 0.0
20/06:30pm 11.1 8.2 6.6 74 2.1 S 11 19 6 10 1027.7 1027.8 0.0
20/06:00pm 11.4 8.4 5.9 69 2.5 SSW 11 20 6 11 1027.4 1027.5 0.0
20/05:30pm 11.3 7.6 6.2 71 2.4 SSW 15 19 8 10 1027.1 1027.2 0.0
20/05:00pm 11.5 7.7 6.0 69 2.6 SSW 15 19 8 10 1026.9 1027.0 0.0
20/04:30pm 11.7 7.6 6.0 68 2.7 SSW 17 22 9 12 1026.7 1026.8 0.0
20/04:00pm 11.8 7.3 6.1 68 2.7 SSW 19 24 10 13 1026.5 1026.6 0.0
20/03:30pm 11.8 7.3 6.3 69 2.6 SSW 19 24 10 13 1026.4 1026.5 0.0
20/03:00pm 12.0 8.5 7.3 73 2.3 SW 15 20 8 11 1026.4 1026.5 0.0
20/02:30pm 12.1 8.9 7.0 71 2.4 SW 13 17 7 9 1026.3 1026.4 0.0
20/02:00pm 11.7 8.6 7.2 74 2.1 SW 13 19 7 10 1026.3 1026.4 0.0
20/01:30pm 12.0 8.3 6.5 69 2.6 SW 15 19 8 10 1026.3 1026.4 0.0
20/01:00pm 12.5 8.7 5.7 63 3.2 S 15 20 8 11 1026.4 1026.5 0.0
20/12:30pm 12.3 9.4 6.4 67 2.8 SSW 11 13 6 7 1026.7 1026.8 0.0
20/12:00pm 11.8 9.6 6.1 68 2.7 SSW 7 13 4 7 1027.0 1027.1 0.0
20/11:30am 12.1 9.5 6.2 67 2.8 SSW 9 17 5 9 1027.2 1027.3 0.0
20/11:00am 12.3 9.9 7.2 71 2.4 SSW 9 13 5 7 1027.3 1027.4 0.0
20/10:30am 11.9 9.0 6.4 69 2.6 ESE 11 17 6 9 1027.3 1027.4 0.0
20/10:00am 11.8 9.3 6.7 71 2.4 ESE 9 13 5 7 1027.4 1027.5 0.0
20/09:30am 11.0 7.7 6.6 74 2.1 E 13 15 7 8 1027.2 1027.3 0.0
20/09:00am 10.4 6.7 6.4 76 1.9 ESE 15 20 8 11 1027.1 1027.2 0.0
20/08:30am 10.2 8.0 6.2 76 1.9 ESE 7 11 4 6 1026.9 1027.0 0.0
20/08:00am 9.9 6.5 5.7 75 1.9 SSE 13 20 7 11 1026.7 1026.8 0.0
20/07:30am 9.3 6.4 4.7 73 2.0 S 9 13 5 7 1026.5 1026.6 0.0
20/07:00am 9.0 7.7 4.0 71 2.2 CALM 0 0 0 0 1026.0 1026.1 0.0
20/06:30am 9.1 7.7 3.7 69 2.3 CALM 0 0 0 0 1025.7 1025.8 0.0
20/06:00am 8.9 7.6 4.1 72 2.1 CALM 0 0 0 0 1025.5 1025.6 0.0
20/05:30am 9.0 7.7 4.0 71 2.2 CALM 0 0 0 0 1025.3 1025.4 0.0
20/05:00am 9.2 7.9 4.0 70 2.3 CALM 0 6 0 3 1025.3 1025.4 0.0
20/04:30am 9.2 6.6 4.0 70 2.3 E 7 11 4 6 1025.4 1025.5 0.0
20/04:00am 9.9 6.0 3.6 65 2.7 E 13 17 7 9 1025.3 1025.4 0.0
20/03:30am 9.8 6.7 3.8 66 2.6 SSE 9 13 5 7 1025.4 1025.5 0.0
20/03:00am 9.8 6.0 3.8 66 2.6 SSE 13 19 7 10 1025.3 1025.4 0.0
20/02:30am 9.7 6.7 4.1 68 2.5 SSE 9 11 5 6 1025.5 1025.6 0.0
20/02:00am 9.6 7.0 4.0 68 2.4 SSE 7 9 4 5 1025.7 1025.8 0.0
20/01:30am 9.9 6.5 4.1 67 2.6 SSE 11 13 6 7 1025.8 1025.9 0.0
20/01:00am 9.9 6.5 4.1 67 2.5 SSE 11 13 6 7 1025.9 1026.0 0.0
20/12:30am 10.2 6.8 3.9 65 2.8 SE 11 15 6 8 1025.8 1025.9 0.0
20/12:00am 10.3 6.5 4.0 65 2.8 ESE 13 22 7 12 1025.7 1025.8 0.0
 
Date/Time
EST
Temp
°C
App
Temp
°C
Dew
Point
Rel
Hum
%
Delta-T
°C
Wind Press
QNH
hPa
Press
MSL
hPa
Rain
since 9 am
mm
Dir
 
Spd
km/h
Gust
km/h
Spd
kts
Gust
kts
19/11:30pm 9.5 7.0 4.7 72 2.1 SE 7 11 4 6 1025.9 1026.0 0.0
19/11:00pm 9.6 7.0 4.4 70 2.3 SE 7 9 4 5 1025.9 1026.0 0.0
19/10:30pm 9.8 6.9 4.4 69 2.4 ESE 9 11 5 6 1026.0 1026.1 0.0
19/10:00pm 10.2 6.8 4.1 66 2.7 SSE 11 15 6 8 1026.0 1026.1 0.0
19/09:30pm 10.2 6.8 3.9 65 2.8 S 11 15 6 8 1025.9 1026.0 0.0
19/09:00pm 10.3 6.9 4.2 66 2.7 SSE 11 17 6 9 1025.8 1025.9 0.0
19/08:30pm 10.1 7.2 4.9 70 2.3 SSE 9 13 5 7 1025.8 1025.9 0.0
19/08:00pm 10.3 7.5 5.1 70 2.3 SE 9 11 5 6 1025.6 1025.7 0.0
19/07:30pm 10.6 7.8 5.2 69 2.5 SE 9 13 5 7 1025.5 1025.6 0.0
19/07:00pm 10.6 7.9 5.4 70 2.4 SE 9 11 5 6 1025.3 1025.4 0.0
19/06:30pm 10.8 8.4 5.3 69 2.5 SSE 7 11 4 6 1025.0 1025.1 0.0
19/06:00pm 11.1 7.5 5.2 67 2.7 S 13 19 7 10 1024.8 1024.9 0.0
19/05:30pm 11.3 7.4 5.4 67 2.7 S 15 20 8 11 1024.5 1024.6 0.0
19/05:00pm 11.5 8.0 5.6 67 2.7 ESE 13 17 7 9 1024.3 1024.4 0.0
19/04:30pm 11.9 7.7 5.8 66 2.8 SE 17 20 9 11 1024.1 1024.2 0.0
19/04:00pm 12.1 7.6 5.9 66 2.9 SE 19 22 10 12 1024.0 1024.1 0.0
19/03:30pm 12.3 7.8 6.1 66 2.9 SE 19 24 10 13 1023.9 1024.0 0.0
19/03:00pm 12.4 8.3 6.0 65 3.0 SSE 17 22 9 12 1023.8 1023.9 0.0
19/02:30pm 12.7 8.6 6.3 65 3.0 SSE 17 24 9 13 1023.8 1023.9 0.0
19/02:00pm 12.7 8.2 6.1 64 3.1 SSE 19 24 10 13 1023.7 1023.8 0.0

Other Formats:

Comma delimited format used in spreadsheet applications
http://www.bom.gov.au/fwo/IDV60801/IDV60801.94870.axf

JavaScript Object Notation format (JSON) in row-major order
http://www.bom.gov.au/fwo/IDV60801/IDV60801.94870.json